sensor_id;sensor_type;location;lat;lon;timestamp;pressure;altitude;pressure_sealevel;temperature;humidity
49473;BME280;67434;50.956;6.918;2023-05-08T00:00:00;101489.44;;;16.16;81.51
49473;BME280;67434;50.956;6.918;2023-05-08T00:02:30;101494.34;;;16.14;81.08
49473;BME280;67434;50.956;6.918;2023-05-08T00:04:55;101497.34;;;16.12;81.27
49473;BME280;67434;50.956;6.918;2023-05-08T00:07:21;101490.00;;;16.08;81.26
49473;BME280;67434;50.956;6.918;2023-05-08T00:09:46;101493.81;;;16.07;81.56
49473;BME280;67434;50.956;6.918;2023-05-08T00:12:11;101498.44;;;16.06;81.46
49473;BME280;67434;50.956;6.918;2023-05-08T00:14:37;101496.53;;;16.07;81.64
49473;BME280;67434;50.956;6.918;2023-05-08T00:17:02;101501.47;;;16.05;81.78
49473;BME280;67434;50.956;6.918;2023-05-08T00:19:27;101505.00;;;16.05;81.91
49473;BME280;67434;50.956;6.918;2023-05-08T00:21:53;101494.66;;;16.02;81.92
49473;BME280;67434;50.956;6.918;2023-05-08T00:24:18;101507.19;;;16.03;81.78
49473;BME280;67434;50.956;6.918;2023-05-08T00:26:44;101506.66;;;16.01;81.97
49473;BME280;67434;50.956;6.918;2023-05-08T00:29:10;101503.38;;;15.99;81.61
49473;BME280;67434;50.956;6.918;2023-05-08T00:31:36;101502.28;;;16.00;81.44
49473;BME280;67434;50.956;6.918;2023-05-08T00:34:02;101510.47;;;16.00;82.10
49473;BME280;67434;50.956;6.918;2023-05-08T00:36:27;101508.25;;;15.97;81.77
49473;BME280;67434;50.956;6.918;2023-05-08T00:38:53;101505.53;;;15.97;81.95
49473;BME280;67434;50.956;6.918;2023-05-08T00:41:18;101508.00;;;15.99;82.37
49473;BME280;67434;50.956;6.918;2023-05-08T00:43:44;101509.06;;;15.98;82.02
49473;BME280;67434;50.956;6.918;2023-05-08T00:46:10;101512.06;;;15.96;82.08
49473;BME280;67434;50.956;6.918;2023-05-08T00:48:37;101515.91;;;15.95;82.24
49473;BME280;67434;50.956;6.918;2023-05-08T00:51:05;101517.00;;;15.94;82.13
49473;BME280;67434;50.956;6.918;2023-05-08T00:53:38;101513.72;;;15.92;82.28
49473;BME280;67434;50.956;6.918;2023-05-08T00:56:04;101514.00;;;15.90;81.85
49473;BME280;67434;50.956;6.918;2023-05-08T00:58:31;101511.53;;;15.89;82.04
49473;BME280;67434;50.956;6.918;2023-05-08T01:00:57;101514.53;;;15.87;81.82
49473;BME280;67434;50.956;6.918;2023-05-08T01:03:24;101507.19;;;15.83;81.72
49473;BME280;67434;50.956;6.918;2023-05-08T01:05:49;101515.38;;;15.83;81.73
49473;BME280;67434;50.956;6.918;2023-05-08T01:08:15;101508.28;;;15.82;81.71
49473;BME280;67434;50.956;6.918;2023-05-08T01:10:46;101514.00;;;15.80;81.65
49473;BME280;67434;50.956;6.918;2023-05-08T01:13:53;101504.72;;;15.76;81.70
49473;BME280;67434;50.956;6.918;2023-05-08T01:19:41;101512.09;;;15.71;81.93
49473;BME280;67434;50.956;6.918;2023-05-08T01:33:51;101512.91;;;15.61;81.84
49473;BME280;67434;50.956;6.918;2023-05-08T01:36:26;101513.16;;;15.59;81.68
49473;BME280;67434;50.956;6.918;2023-05-08T01:39:09;101520.75;;;15.57;81.58
49473;BME280;67434;50.956;6.918;2023-05-08T01:41:39;101522.94;;;15.55;81.61
49473;BME280;67434;50.956;6.918;2023-05-08T01:44:17;101525.38;;;15.52;82.40
49473;BME280;67434;50.956;6.918;2023-05-08T01:46:47;101517.47;;;15.50;81.90
49473;BME280;67434;50.956;6.918;2023-05-08T01:49:39;101533.84;;;15.50;82.01
49473;BME280;67434;50.956;6.918;2023-05-08T01:52:13;101534.38;;;15.47;82.09
49473;BME280;67434;50.956;6.918;2023-05-08T01:54:43;101531.94;;;15.46;82.31
49473;BME280;67434;50.956;6.918;2023-05-08T01:57:11;101534.91;;;15.44;82.21
49473;BME280;67434;50.956;6.918;2023-05-08T01:59:40;101540.38;;;15.44;82.04
49473;BME280;67434;50.956;6.918;2023-05-08T02:02:08;101536.28;;;15.42;81.90
49473;BME280;67434;50.956;6.918;2023-05-08T02:04:35;101538.72;;;15.43;82.42
49473;BME280;67434;50.956;6.918;2023-05-08T02:07:02;101543.91;;;15.45;82.65
49473;BME280;67434;50.956;6.918;2023-05-08T02:09:28;101540.63;;;15.43;82.30
49473;BME280;67434;50.956;6.918;2023-05-08T02:11:55;101543.09;;;15.44;82.59
49473;BME280;67434;50.956;6.918;2023-05-08T02:14:22;101537.66;;;15.44;82.53
49473;BME280;67434;50.956;6.918;2023-05-08T02:16:50;101540.38;;;15.44;81.98
49473;BME280;67434;50.956;6.918;2023-05-08T02:19:17;101546.91;;;15.43;82.19
49473;BME280;67434;50.956;6.918;2023-05-08T02:21:46;101549.09;;;15.41;82.06
49473;BME280;67434;50.956;6.918;2023-05-08T02:24:13;101546.91;;;15.38;82.02
49473;BME280;67434;50.956;6.918;2023-05-08T02:26:40;101542.81;;;15.36;81.98
49473;BME280;67434;50.956;6.918;2023-05-08T02:29:07;101535.72;;;15.35;81.84
49473;BME280;67434;50.956;6.918;2023-05-08T02:31:34;101547.97;;;15.32;81.72
49473;BME280;67434;50.956;6.918;2023-05-08T02:34:03;101552.59;;;15.31;81.91
49473;BME280;67434;50.956;6.918;2023-05-08T02:36:29;101545.53;;;15.30;82.11
49473;BME280;67434;50.956;6.918;2023-05-08T02:38:56;101547.69;;;15.28;81.85
49473;BME280;67434;50.956;6.918;2023-05-08T02:41:27;101550.97;;;15.25;81.67
49473;BME280;67434;50.956;6.918;2023-05-08T02:43:53;101552.28;;;15.23;81.74
49473;BME280;67434;50.956;6.918;2023-05-08T02:46:34;101558.00;;;15.21;81.59
49473;BME280;67434;50.956;6.918;2023-05-08T02:49:05;101553.91;;;15.19;81.79
49473;BME280;67434;50.956;6.918;2023-05-08T02:54:39;101559.34;;;15.14;81.88
49473;BME280;67434;50.956;6.918;2023-05-08T03:00:07;101562.88;;;15.09;81.91
49473;BME280;67434;50.956;6.918;2023-05-08T03:02:40;101563.97;;;15.08;82.25
49473;BME280;67434;50.956;6.918;2023-05-08T03:05:13;101557.97;;;15.06;81.99
49473;BME280;67434;50.956;6.918;2023-05-08T03:07:41;101554.97;;;15.08;82.16
49473;BME280;67434;50.956;6.918;2023-05-08T03:10:13;101552.50;;;15.06;82.11
49473;BME280;67434;50.956;6.918;2023-05-08T03:12:44;101555.50;;;15.05;82.31
49473;BME280;67434;50.956;6.918;2023-05-08T03:15:23;101558.22;;;15.05;82.31
49473;BME280;67434;50.956;6.918;2023-05-08T03:17:53;101552.22;;;15.02;82.00
49473;BME280;67434;50.956;6.918;2023-05-08T03:20:21;101553.31;;;15.01;82.23
49473;BME280;67434;50.956;6.918;2023-05-08T03:22:49;101555.22;;;15.01;82.39
49473;BME280;67434;50.956;6.918;2023-05-08T03:25:17;101559.84;;;15.00;82.43
49473;BME280;67434;50.956;6.918;2023-05-08T03:27:44;101564.75;;;14.98;82.30
49473;BME280;67434;50.956;6.918;2023-05-08T03:30:11;101553.84;;;14.98;82.38
49473;BME280;67434;50.956;6.918;2023-05-08T03:32:40;101558.75;;;14.96;82.29
49473;BME280;67434;50.956;6.918;2023-05-08T03:35:07;101560.91;;;14.94;82.40
49473;BME280;67434;50.956;6.918;2023-05-08T03:37:34;101557.66;;;14.92;82.44
49473;BME280;67434;50.956;6.918;2023-05-08T03:39:59;101554.38;;;14.90;82.31
49473;BME280;67434;50.956;6.918;2023-05-08T03:42:25;101556.81;;;14.92;82.75
49473;BME280;67434;50.956;6.918;2023-05-08T03:44:52;101552.19;;;14.92;83.02
49473;BME280;67434;50.956;6.918;2023-05-08T03:47:19;101551.13;;;14.93;83.19
49473;BME280;67434;50.956;6.918;2023-05-08T03:49:45;101553.00;;;14.93;83.03
49473;BME280;67434;50.956;6.918;2023-05-08T03:52:12;101545.66;;;14.93;83.20
49473;BME280;67434;50.956;6.918;2023-05-08T03:54:39;101557.66;;;14.92;83.15
49473;BME280;67434;50.956;6.918;2023-05-08T03:57:05;101540.22;;;14.93;83.05
49473;BME280;67434;50.956;6.918;2023-05-08T04:02:46;101539.94;;;14.90;82.77
49473;BME280;67434;50.956;6.918;2023-05-08T04:05:26;101542.34;;;14.86;82.94
49473;BME280;67434;50.956;6.918;2023-05-08T04:10:30;101555.41;;;14.84;82.82
49473;BME280;67434;50.956;6.918;2023-05-08T04:13:02;101553.75;;;14.83;82.92
49473;BME280;67434;50.956;6.918;2023-05-08T04:15:32;101558.38;;;14.83;83.14
49473;BME280;67434;50.956;6.918;2023-05-08T04:18:09;101557.84;;;14.81;83.11
49473;BME280;67434;50.956;6.918;2023-05-08T04:20:39;101552.41;;;14.81;82.96
49473;BME280;67434;50.956;6.918;2023-05-08T04:23:06;101548.84;;;14.80;83.10
49473;BME280;67434;50.956;6.918;2023-05-08T04:25:35;101552.41;;;14.81;83.27
49473;BME280;67434;50.956;6.918;2023-05-08T04:28:02;101558.66;;;14.81;83.10
49473;BME280;67434;50.956;6.918;2023-05-08T04:30:28;101568.47;;;14.82;83.40
49473;BME280;67434;50.956;6.918;2023-05-08T04:32:58;101567.09;;;14.80;83.21
49473;BME280;67434;50.956;6.918;2023-05-08T04:35:26;101570.06;;;14.78;83.31
49473;BME280;67434;50.956;6.918;2023-05-08T04:37:52;101574.97;;;14.76;83.18
49473;BME280;67434;50.956;6.918;2023-05-08T04:40:17;101574.16;;;14.76;83.53
49473;BME280;67434;50.956;6.918;2023-05-08T04:42:43;101566.81;;;14.76;83.65
49473;BME280;67434;50.956;6.918;2023-05-08T04:45:11;101569.25;;;14.78;83.32
49473;BME280;67434;50.956;6.918;2023-05-08T04:47:37;101570.06;;;14.78;83.42
49473;BME280;67434;50.956;6.918;2023-05-08T04:50:02;101581.78;;;14.79;83.27
49473;BME280;67434;50.956;6.918;2023-05-08T04:52:28;101580.69;;;14.80;83.27
49473;BME280;67434;50.956;6.918;2023-05-08T04:54:53;101582.34;;;14.81;83.21
49473;BME280;67434;50.956;6.918;2023-05-08T04:57:18;101581.78;;;14.79;83.30
49473;BME280;67434;50.956;6.918;2023-05-08T04:59:44;101582.03;;;14.77;83.12
49473;BME280;67434;50.956;6.918;2023-05-08T05:02:09;101584.78;;;14.77;83.23
49473;BME280;67434;50.956;6.918;2023-05-08T05:04:35;101588.88;;;14.80;83.37
49473;BME280;67434;50.956;6.918;2023-05-08T05:07:01;101590.78;;;14.79;82.87
49473;BME280;67434;50.956;6.918;2023-05-08T05:09:27;101595.13;;;14.80;83.13
49473;BME280;67434;50.956;6.918;2023-05-08T05:11:53;101591.88;;;14.83;83.04
49473;BME280;67434;50.956;6.918;2023-05-08T05:14:18;101596.78;;;14.86;82.90
49473;BME280;67434;50.956;6.918;2023-05-08T05:16:44;101596.56;;;14.88;82.63
49473;BME280;67434;50.956;6.918;2023-05-08T05:19:09;101596.84;;;14.91;82.39
49473;BME280;67434;50.956;6.918;2023-05-08T05:21:34;101597.13;;;14.95;82.09
49473;BME280;67434;50.956;6.918;2023-05-08T05:24:02;101601.78;;;14.99;81.99
49473;BME280;67434;50.956;6.918;2023-05-08T05:26:28;101595.78;;;15.02;81.52
49473;BME280;67434;50.956;6.918;2023-05-08T05:28:53;101602.63;;;15.05;81.43
49473;BME280;67434;50.956;6.918;2023-05-08T05:31:19;101606.44;;;15.09;81.40
49473;BME280;67434;50.956;6.918;2023-05-08T05:33:44;101605.09;;;15.12;81.13
49473;BME280;67434;50.956;6.918;2023-05-08T05:36:11;101613.28;;;15.17;80.83
49473;BME280;67434;50.956;6.918;2023-05-08T05:38:36;101610.56;;;15.22;80.94
49473;BME280;67434;50.956;6.918;2023-05-08T05:41:02;101611.69;;;15.26;80.62
49473;BME280;67434;50.956;6.918;2023-05-08T05:43:31;101609.00;;;15.31;80.42
49473;BME280;67434;50.956;6.918;2023-05-08T05:46:05;101610.63;;;15.32;80.00
49473;BME280;67434;50.956;6.918;2023-05-08T05:48:31;101611.72;;;15.36;80.00
49473;BME280;67434;50.956;6.918;2023-05-08T05:50:56;101628.91;;;15.42;79.69
49473;BME280;67434;50.956;6.918;2023-05-08T05:53:22;101624.84;;;15.44;79.81
49473;BME280;67434;50.956;6.918;2023-05-08T05:55:47;101629.75;;;15.47;79.55
49473;BME280;67434;50.956;6.918;2023-05-08T05:58:12;101625.41;;;15.51;79.49
49473;BME280;67434;50.956;6.918;2023-05-08T06:00:38;101614.78;;;15.55;79.55
49473;BME280;67434;50.956;6.918;2023-05-08T06:03:04;101623.50;;;15.57;79.04
49473;BME280;67434;50.956;6.918;2023-05-08T06:05:29;101617.84;;;15.63;79.24
49473;BME280;67434;50.956;6.918;2023-05-08T06:07:55;101631.47;;;15.69;79.07
49473;BME280;67434;50.956;6.918;2023-05-08T06:10:20;101631.50;;;15.74;78.98
49473;BME280;67434;50.956;6.918;2023-05-08T06:12:45;101638.31;;;15.76;78.81
49473;BME280;67434;50.956;6.918;2023-05-08T06:15:11;101632.88;;;15.81;78.98
49473;BME280;67434;50.956;6.918;2023-05-08T06:17:40;101631.50;;;15.89;78.60
49473;BME280;67434;50.956;6.918;2023-05-08T06:20:06;101632.31;;;15.89;78.51
49473;BME280;67434;50.956;6.918;2023-05-08T06:22:32;101631.25;;;15.90;78.25
49473;BME280;67434;50.956;6.918;2023-05-08T06:24:58;101634.25;;;15.94;78.16
49473;BME280;67434;50.956;6.918;2023-05-08T06:27:24;101638.59;;;15.95;78.15
49473;BME280;67434;50.956;6.918;2023-05-08T06:29:50;101635.88;;;15.95;78.15
49473;BME280;67434;50.956;6.918;2023-05-08T06:32:20;101634.00;;;16.01;78.53
49473;BME280;67434;50.956;6.918;2023-05-08T06:34:45;101631.00;;;16.02;77.82
49473;BME280;67434;50.956;6.918;2023-05-08T06:37:11;101638.63;;;16.05;77.98
49473;BME280;67434;50.956;6.918;2023-05-08T06:39:36;101633.47;;;16.09;78.09
49473;BME280;67434;50.956;6.918;2023-05-08T06:42:02;101635.38;;;16.13;77.68
49473;BME280;67434;50.956;6.918;2023-05-08T06:44:30;101626.09;;;16.19;77.45
49473;BME280;67434;50.956;6.918;2023-05-08T06:46:56;101631.81;;;16.18;77.34
49473;BME280;67434;50.956;6.918;2023-05-08T06:49:22;101633.72;;;16.17;77.38
49473;BME280;67434;50.956;6.918;2023-05-08T06:51:47;101631.53;;;16.19;77.38
49473;BME280;67434;50.956;6.918;2023-05-08T06:54:13;101625.00;;;16.15;77.34
49473;BME280;67434;50.956;6.918;2023-05-08T06:56:38;101629.63;;;16.15;77.50
49473;BME280;67434;50.956;6.918;2023-05-08T06:59:04;101625.81;;;16.21;77.82
49473;BME280;67434;50.956;6.918;2023-05-08T07:01:30;101630.72;;;16.14;77.63
49473;BME280;67434;50.956;6.918;2023-05-08T07:03:55;101627.47;;;16.07;77.74
49473;BME280;67434;50.956;6.918;2023-05-08T07:06:20;101626.09;;;16.04;77.91
49473;BME280;67434;50.956;6.918;2023-05-08T07:08:46;101628.00;;;15.99;77.98
49473;BME280;67434;50.956;6.918;2023-05-08T07:11:11;101627.16;;;15.93;78.29
49473;BME280;67434;50.956;6.918;2023-05-08T07:13:37;101625.25;;;15.88;78.61
49473;BME280;67434;50.956;6.918;2023-05-08T07:16:10;101632.06;;;15.86;78.70
49473;BME280;67434;50.956;6.918;2023-05-08T07:18:36;101633.69;;;15.82;78.48
49473;BME280;67434;50.956;6.918;2023-05-08T07:21:02;101630.94;;;15.77;78.70
49473;BME280;67434;50.956;6.918;2023-05-08T07:23:28;101637.50;;;15.81;78.50
49473;BME280;67434;50.956;6.918;2023-05-08T07:25:53;101642.13;;;15.85;78.89
49473;BME280;67434;50.956;6.918;2023-05-08T07:28:19;101641.06;;;15.97;78.87
49473;BME280;67434;50.956;6.918;2023-05-08T07:30:44;101646.00;;;16.10;77.89
49473;BME280;67434;50.956;6.918;2023-05-08T07:33:10;101648.72;;;16.30;77.56
49473;BME280;67434;50.956;6.918;2023-05-08T07:35:38;101640.28;;;16.47;76.96
49473;BME280;67434;50.956;6.918;2023-05-08T07:38:03;101646.00;;;16.50;76.60
49473;BME280;67434;50.956;6.918;2023-05-08T07:40:29;101637.81;;;16.61;76.30
49473;BME280;67434;50.956;6.918;2023-05-08T07:42:54;101647.09;;;16.70;75.89
49473;BME280;67434;50.956;6.918;2023-05-08T07:45:19;101652.28;;;16.76;75.77
49473;BME280;67434;50.956;6.918;2023-05-08T07:47:56;101652.81;;;16.88;75.27
49473;BME280;67434;50.956;6.918;2023-05-08T07:50:23;101649.50;;;17.02;75.12
49473;BME280;67434;50.956;6.918;2023-05-08T07:52:49;101655.22;;;17.10;75.02
49473;BME280;67434;50.956;6.918;2023-05-08T07:55:15;101650.53;;;17.21;74.67
49473;BME280;67434;50.956;6.918;2023-05-08T07:57:42;101658.69;;;17.31;74.38
49473;BME280;67434;50.956;6.918;2023-05-08T08:00:13;101663.53;;;17.49;73.92
49473;BME280;67434;50.956;6.918;2023-05-08T08:02:39;101670.06;;;17.59;73.09
49473;BME280;67434;50.956;6.918;2023-05-08T08:05:05;101663.47;;;17.65;72.45
49473;BME280;67434;50.956;6.918;2023-05-08T08:07:31;101670.88;;;17.59;71.95
49473;BME280;67434;50.956;6.918;2023-05-08T08:10:03;101661.84;;;17.59;71.97
49473;BME280;67434;50.956;6.918;2023-05-08T08:12:29;101666.19;;;17.70;72.29
49473;BME280;67434;50.956;6.918;2023-05-08T08:14:55;101670.78;;;17.85;71.69
49473;BME280;67434;50.956;6.918;2023-05-08T08:17:20;101660.06;;;17.93;71.41
49473;BME280;67434;50.956;6.918;2023-05-08T08:19:46;101671.50;;;18.00;70.69
49473;BME280;67434;50.956;6.918;2023-05-08T08:22:13;101664.34;;;18.04;70.85
49473;BME280;67434;50.956;6.918;2023-05-08T08:24:38;101657.69;;;18.16;70.11
49473;BME280;67434;50.956;6.918;2023-05-08T08:27:04;101662.09;;;18.11;70.13
49473;BME280;67434;50.956;6.918;2023-05-08T08:29:29;101666.91;;;18.30;69.58
49473;BME280;67434;50.956;6.918;2023-05-08T08:31:55;101667.16;;;18.33;68.90
49473;BME280;67434;50.956;6.918;2023-05-08T08:34:21;101664.59;;;18.42;68.59
49473;BME280;67434;50.956;6.918;2023-05-08T08:36:46;101656.16;;;18.38;68.80
49473;BME280;67434;50.956;6.918;2023-05-08T08:39:12;101658.69;;;18.30;68.70
49473;BME280;67434;50.956;6.918;2023-05-08T08:41:38;101669.75;;;18.49;68.89
49473;BME280;67434;50.956;6.918;2023-05-08T08:44:04;101659.19;;;18.37;68.98
49473;BME280;67434;50.956;6.918;2023-05-08T08:46:30;101665.75;;;18.36;69.01
49473;BME280;67434;50.956;6.918;2023-05-08T08:48:58;101648.56;;;18.30;69.37
49473;BME280;67434;50.956;6.918;2023-05-08T08:51:24;101661.63;;;18.38;68.88
49473;BME280;67434;50.956;6.918;2023-05-08T08:54:13;101651.53;;;18.34;69.09
49473;BME280;67434;50.956;6.918;2023-05-08T08:56:43;101640.78;;;18.42;68.54
49473;BME280;67434;50.956;6.918;2023-05-08T08:59:14;101652.44;;;18.53;68.13
49473;BME280;67434;50.956;6.918;2023-05-08T09:01:43;101648.59;;;18.54;68.28
49473;BME280;67434;50.956;6.918;2023-05-08T09:04:10;101650.72;;;18.67;68.08
49473;BME280;67434;50.956;6.918;2023-05-08T09:06:36;101659.41;;;18.74;67.62
49473;BME280;67434;50.956;6.918;2023-05-08T09:09:02;101664.19;;;18.88;67.85
49473;BME280;67434;50.956;6.918;2023-05-08T09:11:28;101658.13;;;18.96;67.34
49473;BME280;67434;50.956;6.918;2023-05-08T09:13:54;101658.06;;;19.01;67.05
49473;BME280;67434;50.956;6.918;2023-05-08T09:16:20;101666.56;;;18.99;67.36
49473;BME280;67434;50.956;6.918;2023-05-08T09:18:46;101670.44;;;18.93;67.22
49473;BME280;67434;50.956;6.918;2023-05-08T09:21:12;101666.88;;;18.93;67.49
49473;BME280;67434;50.956;6.918;2023-05-08T09:23:58;101662.00;;;18.90;67.46
49473;BME280;67434;50.956;6.918;2023-05-08T09:29:16;101659.09;;;19.05;67.18
49473;BME280;67434;50.956;6.918;2023-05-08T09:31:46;101652.22;;;19.08;66.39
49473;BME280;67434;50.956;6.918;2023-05-08T09:34:29;101658.97;;;19.15;66.64
49473;BME280;67434;50.956;6.918;2023-05-08T09:39:30;101655.41;;;19.15;66.30
49473;BME280;67434;50.956;6.918;2023-05-08T09:42:04;101664.47;;;19.15;65.97
49473;BME280;67434;50.956;6.918;2023-05-08T09:47:24;101661.94;;;18.95;67.03
49473;BME280;67434;50.956;6.918;2023-05-08T09:52:25;101679.25;;;18.90;67.62
49473;BME280;67434;50.956;6.918;2023-05-08T09:55:01;101668.34;;;18.85;67.53
49473;BME280;67434;50.956;6.918;2023-05-08T09:57:28;101668.41;;;18.80;67.80
49473;BME280;67434;50.956;6.918;2023-05-08T10:00:20;101675.38;;;18.67;68.24
49473;BME280;67434;50.956;6.918;2023-05-08T10:03:00;101667.75;;;18.59;67.98
49473;BME280;67434;50.956;6.918;2023-05-08T10:05:33;101676.78;;;18.60;68.38
49473;BME280;67434;50.956;6.918;2023-05-08T10:08:20;101684.19;;;18.59;68.37
49473;BME280;67434;50.956;6.918;2023-05-08T10:10:48;101673.00;;;18.51;68.88
49473;BME280;67434;50.956;6.918;2023-05-08T10:13:15;101671.63;;;18.53;68.27
49473;BME280;67434;50.956;6.918;2023-05-08T10:15:42;101678.19;;;18.52;68.40
49473;BME280;67434;50.956;6.918;2023-05-08T10:18:08;101667.78;;;18.54;68.17
49473;BME280;67434;50.956;6.918;2023-05-08T10:20:39;101661.47;;;18.59;68.17
49473;BME280;67434;50.956;6.918;2023-05-08T10:23:07;101668.84;;;18.63;67.58
49473;BME280;67434;50.956;6.918;2023-05-08T10:25:43;101660.91;;;18.62;68.04
49473;BME280;67434;50.956;6.918;2023-05-08T10:28:15;101666.66;;;18.60;67.77
49473;BME280;67434;50.956;6.918;2023-05-08T10:30:43;101656.81;;;18.54;67.81
49473;BME280;67434;50.956;6.918;2023-05-08T10:33:13;101658.44;;;18.60;67.72
49473;BME280;67434;50.956;6.918;2023-05-08T10:35:39;101656.50;;;18.61;67.81
49473;BME280;67434;50.956;6.918;2023-05-08T10:38:07;101654.88;;;18.60;67.92
49473;BME280;67434;50.956;6.918;2023-05-08T10:40:34;101657.34;;;18.56;68.24
49473;BME280;67434;50.956;6.918;2023-05-08T10:42:59;101637.66;;;18.54;68.42
49473;BME280;67434;50.956;6.918;2023-05-08T10:45:26;101641.22;;;18.55;68.70
49473;BME280;67434;50.956;6.918;2023-05-08T10:48:22;101637.13;;;18.52;68.61
49473;BME280;67434;50.956;6.918;2023-05-08T10:53:30;101643.09;;;18.64;68.42
49473;BME280;67434;50.956;6.918;2023-05-08T10:55:58;101640.28;;;18.69;68.22
49473;BME280;67434;50.956;6.918;2023-05-08T11:03:29;101648.94;;;18.82;67.28
49473;BME280;67434;50.956;6.918;2023-05-08T11:05:56;101651.09;;;18.85;67.04
49473;BME280;67434;50.956;6.918;2023-05-08T11:08:26;101654.06;;;18.88;66.79
49473;BME280;67434;50.956;6.918;2023-05-08T11:13:27;101657.09;;;18.87;66.76
49473;BME280;67434;50.956;6.918;2023-05-08T11:15:54;101648.47;;;18.74;67.07
49473;BME280;67434;50.956;6.918;2023-05-08T11:18:21;101646.41;;;18.85;67.16
49473;BME280;67434;50.956;6.918;2023-05-08T11:21:01;101655.50;;;18.81;67.46
49473;BME280;67434;50.956;6.918;2023-05-08T11:23:34;101643.69;;;18.85;67.22
49473;BME280;67434;50.956;6.918;2023-05-08T11:26:13;101642.97;;;18.74;67.19
49473;BME280;67434;50.956;6.918;2023-05-08T11:28:54;101636.41;;;18.76;67.40
49473;BME280;67434;50.956;6.918;2023-05-08T11:31:21;101646.25;;;18.77;67.59
49473;BME280;67434;50.956;6.918;2023-05-08T11:33:48;101631.72;;;18.76;67.81
49473;BME280;67434;50.956;6.918;2023-05-08T11:36:16;101638.31;;;18.75;67.95
49473;BME280;67434;50.956;6.918;2023-05-08T11:38:42;101627.81;;;18.82;67.64
49473;BME280;67434;50.956;6.918;2023-05-08T11:41:22;101636.88;;;19.07;66.97
49473;BME280;67434;50.956;6.918;2023-05-08T11:49:14;101628.97;;;19.48;65.92
49473;BME280;67434;50.956;6.918;2023-05-08T11:51:48;101627.16;;;19.62;65.86
49473;BME280;67434;50.956;6.918;2023-05-08T11:54:16;101636.94;;;19.87;65.36
49473;BME280;67434;50.956;6.918;2023-05-08T11:56:50;101634.56;;;19.99;65.20
49473;BME280;67434;50.956;6.918;2023-05-08T11:59:16;101625.72;;;20.21;64.04
49473;BME280;67434;50.956;6.918;2023-05-08T12:01:42;101627.16;;;20.32;63.44
49473;BME280;67434;50.956;6.918;2023-05-08T12:04:10;101633.88;;;20.45;62.85
49473;BME280;67434;50.956;6.918;2023-05-08T12:06:37;101637.97;;;20.61;62.19
49473;BME280;67434;50.956;6.918;2023-05-08T12:09:09;101635.41;;;20.65;61.77
49473;BME280;67434;50.956;6.918;2023-05-08T12:11:35;101630.06;;;20.87;60.90
49473;BME280;67434;50.956;6.918;2023-05-08T12:14:01;101636.25;;;20.79;61.25
49473;BME280;67434;50.956;6.918;2023-05-08T12:16:26;101611.81;;;20.77;61.62
49473;BME280;67434;50.956;6.918;2023-05-08T12:18:52;101616.09;;;20.70;61.94
49473;BME280;67434;50.956;6.918;2023-05-08T12:21:20;101617.81;;;20.66;62.22
49473;BME280;67434;50.956;6.918;2023-05-08T12:23:45;101624.13;;;20.52;62.62
49473;BME280;67434;50.956;6.918;2023-05-08T12:26:11;101627.19;;;20.78;62.45
49473;BME280;67434;50.956;6.918;2023-05-08T12:28:37;101628.91;;;20.60;62.22
49473;BME280;67434;50.956;6.918;2023-05-08T12:31:03;101620.25;;;20.53;62.11
49473;BME280;67434;50.956;6.918;2023-05-08T12:33:29;101609.38;;;20.62;61.07
49473;BME280;67434;50.956;6.918;2023-05-08T12:35:55;101610.28;;;20.39;61.80
49473;BME280;67434;50.956;6.918;2023-05-08T12:38:25;101613.72;;;20.17;62.57
49473;BME280;67434;50.956;6.918;2023-05-08T12:40:51;101610.06;;;20.03;62.96
49473;BME280;67434;50.956;6.918;2023-05-08T12:43:33;101606.84;;;19.82;64.00
49473;BME280;67434;50.956;6.918;2023-05-08T12:45:59;101598.69;;;19.77;64.47
49473;BME280;67434;50.956;6.918;2023-05-08T12:48:25;101596.09;;;19.85;64.16
49473;BME280;67434;50.956;6.918;2023-05-08T12:50:51;101602.31;;;19.91;64.26
49473;BME280;67434;50.956;6.918;2023-05-08T12:53:18;101599.44;;;19.82;64.00
49473;BME280;67434;50.956;6.918;2023-05-08T12:55:54;101590.16;;;19.78;63.41
49473;BME280;67434;50.956;6.918;2023-05-08T12:58:27;101596.09;;;19.85;63.15
49473;BME280;67434;50.956;6.918;2023-05-08T13:01:02;101587.44;;;19.78;63.25
49473;BME280;67434;50.956;6.918;2023-05-08T13:03:29;101584.50;;;19.70;64.05
49473;BME280;67434;50.956;6.918;2023-05-08T13:05:56;101583.47;;;19.65;63.66
49473;BME280;67434;50.956;6.918;2023-05-08T13:08:32;101582.53;;;19.56;63.67
49473;BME280;67434;50.956;6.918;2023-05-08T13:10:59;101590.06;;;19.46;64.37
49473;BME280;67434;50.956;6.918;2023-05-08T13:13:28;101593.25;;;19.34;64.59
49473;BME280;67434;50.956;6.918;2023-05-08T13:15:55;101580.53;;;19.19;65.53
49473;BME280;67434;50.956;6.918;2023-05-08T13:18:23;101591.56;;;19.14;65.87
49473;BME280;67434;50.956;6.918;2023-05-08T13:20:49;101571.50;;;19.19;65.90
49473;BME280;67434;50.956;6.918;2023-05-08T13:23:15;101583.06;;;19.16;66.17
49473;BME280;67434;50.956;6.918;2023-05-08T13:25:40;101578.91;;;19.18;65.85
49473;BME280;67434;50.956;6.918;2023-05-08T13:28:07;101565.13;;;19.23;65.73
49473;BME280;67434;50.956;6.918;2023-05-08T13:30:34;101572.44;;;19.33;65.55
49473;BME280;67434;50.956;6.918;2023-05-08T13:33:00;101578.34;;;19.40;65.23
49473;BME280;67434;50.956;6.918;2023-05-08T13:35:25;101564.94;;;19.39;65.44
49473;BME280;67434;50.956;6.918;2023-05-08T13:37:55;101568.31;;;19.30;65.85
49473;BME280;67434;50.956;6.918;2023-05-08T13:40:22;101562.09;;;19.25;66.14
49473;BME280;67434;50.956;6.918;2023-05-08T13:42:47;101567.06;;;19.23;66.29
49473;BME280;67434;50.956;6.918;2023-05-08T13:45:13;101561.88;;;19.21;66.46
49473;BME280;67434;50.956;6.918;2023-05-08T13:47:40;101561.34;;;19.19;66.33